Atmospheric History
10/14/2018 19:46  to  10/15/2018 19:46
Change End Date:
To complete the export process:
1) Select all of the data below
2) Copy the data to the clipboard
3) Open a word processor such as Notepad
4) Paste the data into the word processor
5) Save the file

Date/Time (MST), AirTemp, RH, Dewpoint ,AvgWindSpeed, GustWindSpeed, WindDirection, PrecipType, PrecipIntensity, PrecipAccumulation, PrecipRate
10/15/2018 19:45, 34, 63, 23 ,1, 2, E, None, None, ,  
10/15/2018 19:42, 35, 60, 23 ,0, 2, NE, None, None, ,  
10/15/2018 19:35, 37, 54, 23 ,2, 2, NE, None, None, ,  
10/15/2018 19:26, 38, 55, 23 ,1, 3, N, None, None, ,  
10/15/2018 19:25, 38, 55, 24 ,1, 3, NE, None, None, ,  
10/15/2018 19:15, 39, 54, 24 ,2, 6, W, None, None, ,  
10/15/2018 19:11, 39, 54, 24 ,2, 6, NW, None, None, ,  
10/15/2018 19:05, 40, 50, 23 ,2, 7, N, None, None, ,  
10/15/2018 18:57, 41, 51, 25 ,6, 8, W, None, None, ,  
10/15/2018 18:55, 41, 50, 24 ,6, 8, W, None, None, ,  
10/15/2018 18:45, 42, 50, 25 ,6, 7, W, None, None, ,  
10/15/2018 18:42, 42, 49, 24 ,5, 7, W, None, None, ,  
10/15/2018 18:35, 43, 48, 25 ,6, 9, W, None, None, ,  
10/15/2018 18:27, 44, 45, 24 ,5, 7, W, None, None, ,  
10/15/2018 18:25, 44, 45, 24 ,6, 8, W, None, None, ,  
10/15/2018 18:15, 45, 43, 24 ,7, 8, W, None, None, ,  
10/15/2018 18:12, 45, 44, 24 ,6, 8, W, None, None, ,  
10/15/2018 18:05, 46, 47, 27 ,5, 8, W, None, None, ,  
10/15/2018 17:57, 46, 43, 25 ,6, 7, W, None, None, ,  
10/15/2018 17:55, 46, 47, 27 ,4, 6, W, None, None, ,  
10/15/2018 17:45, 46, 46, 27 ,4, 5, NW, None, None, ,  
10/15/2018 17:42, 46, 41, 24 ,4, 6, NW, None, None, ,  
10/15/2018 17:35, 46, 43, 25 ,4, 6, NW, None, None, ,  
10/15/2018 17:28, 47, 38, 23 ,3, 9, NW, None, None, ,  
10/15/2018 17:25, 46, 40, 24 ,4, 9, W, None, None, ,  
10/15/2018 17:15, 47, 43, 26 ,5, 7, NW, None, None, ,  
10/15/2018 17:14, 46, 40, 24 ,5, 7, NW, None, None, ,  
10/15/2018 17:04, 46, 40, 23 ,5, 7, NW, None, None, ,  
10/15/2018 16:59, 46, 40, 23 ,6, 8, NW, None, None, ,  
10/15/2018 16:54, 46, 42, 24 ,6, 8, NW, None, None, ,  
10/15/2018 16:44, 46, 39, 22 ,6, 8, NW, None, None, ,  
10/15/2018 16:43, 46, 43, 25 ,6, 8, NW, None, None, ,  
10/15/2018 16:34, 46, 46, 27 ,6, 8, NW, None, None, ,  
10/15/2018 16:28, 46, 43, 25 ,5, 9, NW, None, None, ,  
10/15/2018 16:24, 46, 37, 21 ,6, 9, NW, None, None, ,  
10/15/2018 16:14, 46, 40, 24 ,4, 7, NW, None, None, ,  
10/15/2018 16:13, 46, 42, 25 ,4, 7, NW, None, None, ,  
10/15/2018 16:04, 47, 36, 22 ,3, 7, W, None, None, ,  
10/15/2018 15:58, 46, 38, 23 ,5, 6, NW, None, None, ,  
10/15/2018 15:54, 47, 35, 21 ,2, 3, NW, None, None, ,  
10/15/2018 15:44, 45, 35, 20 ,1, 3, SW, None, None, ,  
10/15/2018 15:43, 45, 34, 19 ,1, 3, W, None, None, ,  
10/15/2018 15:34, 44, 36, 19 ,2, 4, NW, None, None, ,  
10/15/2018 15:28, 45, 35, 19 ,2, 4, NW, None, None, ,  
10/15/2018 15:24, 44, 39, 20 ,2, 4, SW, None, None, ,  
10/15/2018 15:14, 44, 37, 19 ,2, 4, SW, None, None, ,  
10/15/2018 15:13, 44, 37, 20 ,2, 4, SW, None, None, ,  
10/15/2018 15:04, 43, 37, 19 ,2, 5, SE, None, None, ,  
10/15/2018 14:58, 43, 39, 20 ,4, 5, SW, None, None, ,  
10/15/2018 14:54, 44, 38, 21 ,1, 7, W, None, None, ,  
10/15/2018 14:44, 43, 43, 22 ,3, 6, NW, None, None, ,  
10/15/2018 14:42, 43, 40, 20 ,2, 4, S, None, None, ,  
10/15/2018 14:34, 42, 39, 19 ,1, 3, N, None, None, ,  
10/15/2018 14:28, 42, 38, 19 ,0, 4, NE, None, None, ,  
10/15/2018 14:24, 42, 40, 19 ,1, 4, SE, None, None, ,  
10/15/2018 14:14, 42, 41, 20 ,1, 4, S, None, None, ,  
10/15/2018 14:13, 41, 41, 19 ,2, 4, S, None, None, ,  
10/15/2018 14:04, 40, 43, 20 ,4, 6, S, None, None, ,  
10/15/2018 13:58, 40, 43, 20 ,2, 4, SW, None, None, ,  
10/15/2018 13:54, 40, 43, 20 ,1, 4, SW, None, None, ,  
10/15/2018 13:43, 40, 47, 22 ,4, 6, SW, None, None, ,  
10/15/2018 13:42, 40, 43, 20 ,4, 6, N, None, None, ,  
10/15/2018 13:33, 39, 43, 19 ,1, 4, SW, None, None, ,  
10/15/2018 13:28, 38, 44, 19 ,2, 4, S, None, None, ,  
10/15/2018 13:23, 39, 45, 19 ,2, 4, SW, None, None, ,  
10/15/2018 13:13, 38, 45, 19 ,1, 3, SW, None, None, ,  
10/15/2018 13:13, 38, 45, 19 ,2, 3, SW, None, None, ,  
10/15/2018 13:03, 38, 45, 19 ,0, 4, S, None, None, ,  
10/15/2018 12:57, 38, 47, 20 ,3, 6, SW, None, None, ,  
10/15/2018 12:53, 39, 46, 20 ,2, 6, SW, None, None, ,  
10/15/2018 12:43, 39, 45, 20 ,4, 6, NW, None, None, ,  
10/15/2018 12:42, 39, 46, 20 ,3, 6, NW, None, None, ,  
10/15/2018 12:33, 38, 47, 20 ,4, 7, NW, None, None, ,  
10/15/2018 12:28, 38, 46, 19 ,4, 7, NW, None, None, ,  
10/15/2018 12:23, 38, 48, 20 ,6, 7, NW, None, None, ,  
10/15/2018 12:13, 38, 49, 21 ,4, 7, NW, None, None, ,  
10/15/2018 12:12, 38, 48, 20 ,4, 7, NW, None, None, ,  
10/15/2018 12:03, 38, 49, 20 ,4, 7, W, None, None, ,  
10/15/2018 11:58, 37, 50, 20 ,6, 7, NW, None, None, ,  
10/15/2018 11:53, 37, 48, 19 ,2, 6, W, None, None, ,  
10/15/2018 11:43, 36, 50, 19 ,4, 7, W, None, None, ,  
10/15/2018 11:42, 36, 48, 18 ,4, 7, W, None, None, ,  
10/15/2018 11:33, 35, 51, 19 ,5, 7, SW, None, None, ,  
10/15/2018 11:27, 35, 51, 19 ,4, 8, SW, None, None, ,  
10/15/2018 11:23, 35, 52, 20 ,6, 7, SW, None, None, ,  
10/15/2018 11:13, 34, 56, 20 ,2, 6, SW, None, None, ,  
10/15/2018 11:12, 34, 56, 20 ,2, 4, SW, None, None, ,  
10/15/2018 11:03, 33, 58, 20 ,0, 2, S, None, None, ,  
10/15/2018 10:58, 33, 57, 19 ,1, 2, S, None, None, ,  
10/15/2018 10:53, 32, 57, 19 ,1, 2, SW, None, None, ,  
10/15/2018 10:43, 31, 60, 19 ,1, 2, S, None, None, ,  
10/15/2018 10:43, 31, 60, 19 ,1, 2, S, None, None, ,  
10/15/2018 10:32, 31, 63, 20 ,0, 1, SW, None, None, ,  
10/15/2018 10:28, 30, 65, 20 ,0, 1, SE, None, None, ,  
10/15/2018 10:22, 30, 66, 20 ,0, 1, SE, None, None, ,  
10/15/2018 10:13, 29, 67, 20 ,0, 1, SE, None, None, ,  
10/15/2018 10:12, 29, 67, 20 ,0, 1, SE, None, None, ,  
10/15/2018 10:02, 29, 68, 20 ,1, 2, E, None, None, ,  
10/15/2018 09:58, 28, 69, 19 ,1, 3, E, None, None, ,  
10/15/2018 09:52, 28, 69, 19 ,2, 4, NE, None, None, ,  
10/15/2018 09:43, 26, 73, 19 ,3, 6, NE, None, None, ,  
10/15/2018 09:42, 26, 73, 19 ,3, 6, NE, None, None, ,  
10/15/2018 09:32, 24, 77, 18 ,3, 4, NE, None, None, ,  
10/15/2018 09:28, 24, 78, 18 ,1, 6, NE, None, None, ,  
10/15/2018 09:22, 23, 79, 18 ,4, 9, NE, None, None, ,  
10/15/2018 09:13, 22, 82, 17 ,6, 9, NE, None, None, ,  
10/15/2018 09:12, 22, 83, 17 ,6, 8, NE, None, None, ,  
10/15/2018 09:02, 20, 84, 16 ,4, 7, NE, None, None, ,  
10/15/2018 08:58, 20, 83, 16 ,6, 7, NE, None, None, ,  
10/15/2018 08:52, 20, 84, 16 ,3, 7, NE, None, None, ,  
10/15/2018 08:43, 19, 85, 16 ,3, 6, NE, None, None, ,  
10/15/2018 08:42, 19, 85, 16 ,3, 7, NE, None, None, ,  
10/15/2018 08:32, 19, 85, 15 ,5, 7, NE, None, None, ,  
10/15/2018 08:28, 19, 85, 15 ,6, 7, NE, None, None, ,  
10/15/2018 08:22, 19, 85, 15 ,4, 6, NE, None, None, ,  
10/15/2018 08:13, 19, 86, 15 ,5, 8, NE, None, None, ,  
10/15/2018 08:12, 19, 86, 15 ,6, 8, NE, None, None, ,  
10/15/2018 08:02, 19, 85, 15 ,5, 7, NE, None, None, ,  
10/15/2018 07:57, 19, 85, 15 ,6, 7, NE, None, None, ,  
10/15/2018 07:52, 19, 86, 15 ,5, 7, NE, None, None, ,  
10/15/2018 07:42, 19, 86, 16 ,4, 7, NE, None, None, ,  
10/15/2018 07:42, 19, 86, 16 ,4, 7, NE, None, None, ,  
10/15/2018 07:32, 19, 86, 16 ,6, 7, NE, None, None, ,  
10/15/2018 07:26, 20, 85, 16 ,4, 6, NE, None, None, ,  
10/15/2018 07:22, 20, 86, 16 ,5, 6, NE, None, None, ,  
10/15/2018 07:12, 19, 85, 16 ,3, 7, NE, None, None, ,  
10/15/2018 07:11, 19, 85, 16 ,3, 7, NE, None, None, ,  
10/15/2018 07:01, 19, 85, 15 ,6, 7, NE, None, None, ,  
10/15/2018 06:57, 19, 85, 15 ,6, 7, NE, None, None, ,  
10/15/2018 06:51, 19, 86, 15 ,6, 7, NE, None, None, ,  
10/15/2018 06:43, 19, 86, 15 ,6, 7, NE, None, None, ,  
10/15/2018 06:41, 19, 86, 15 ,6, 7, NE, None, None, ,  
10/15/2018 06:31, 19, 86, 15 ,5, 7, NE, None, None, ,  
10/15/2018 06:28, 19, 85, 15 ,5, 7, NE, None, None, ,  
10/15/2018 06:21, 19, 85, 15 ,5, 6, NE, None, None, ,  
10/15/2018 06:13, 20, 85, 16 ,3, 6, NE, None, None, ,  
10/15/2018 06:11, 20, 85, 16 ,4, 6, NE, None, None, ,  
10/15/2018 06:01, 19, 83, 15 ,4, 5, N, None, None, ,  
10/15/2018 05:58, 19, 82, 15 ,2, 4, NE, None, None, ,  
10/15/2018 05:51, 21, 80, 16 ,1, 2, E, None, None, ,  
10/15/2018 05:43, 22, 79, 17 ,1, 4, NE, None, None, ,  
10/15/2018 05:41, 22, 79, 17 ,2, 4, NE, None, None, ,  
10/15/2018 05:31, 22, 79, 17 ,1, 4, E, None, None, ,  
10/15/2018 05:28, 22, 79, 17 ,2, 6, NE, None, None, ,  
10/15/2018 05:21, 22, 79, 16 ,2, 6, NE, None, None, ,  
10/15/2018 05:13, 22, 80, 17 ,4, 7, NE, None, None, ,  
10/15/2018 05:11, 21, 80, 16 ,5, 7, NE, None, None, ,  
10/15/2018 05:01, 21, 81, 16 ,6, 7, NE, None, None, ,  
10/15/2018 04:58, 21, 80, 16 ,5, 7, NE, None, None, ,  
10/15/2018 04:51, 22, 80, 17 ,4, 7, NE, None, None, ,  
10/15/2018 04:42, 21, 82, 17 ,7, 9, NE, None, None, ,  
10/15/2018 04:41, 21, 82, 17 ,6, 9, NE, None, None, ,  
10/15/2018 04:31, 20, 82, 16 ,6, 9, NE, None, None, ,  
10/15/2018 04:28, 20, 82, 16 ,7, 9, NE, None, None, ,  
10/15/2018 04:21, 20, 83, 16 ,7, 9, NE, None, None, ,  
10/15/2018 04:13, 20, 83, 16 ,7, 9, NE, None, None, ,  
10/15/2018 04:11, 20, 83, 15 ,7, 9, NE, None, None, ,  
10/15/2018 04:01, 20, 84, 16 ,6, 7, NE, None, None, ,  
10/15/2018 03:58, 20, 84, 16 ,6, 8, NE, None, None, ,  
10/15/2018 03:50, 19, 84, 15 ,6, 7, NE, None, None, ,  
10/15/2018 03:43, 20, 83, 15 ,5, 7, NE, None, None, ,  
10/15/2018 03:40, 20, 84, 16 ,7, 7, NE, None, None, ,  
10/15/2018 03:30, 20, 84, 16 ,6, 7, NE, None, None, ,  
10/15/2018 03:28, 20, 84, 16 ,4, 7, NE, None, None, ,  
10/15/2018 03:20, 20, 84, 16 ,5, 7, NE, None, None, ,  
10/15/2018 03:13, 20, 83, 16 ,4, 6, NE, None, None, ,  
10/15/2018 03:10, 20, 82, 16 ,3, 4, NE, None, None, ,  
10/15/2018 03:00, 21, 82, 16 ,4, 6, NE, None, None, ,  
10/15/2018 02:58, 21, 82, 16 ,4, 6, NE, None, None, ,  
10/15/2018 02:50, 21, 81, 16 ,6, 7, NE, None, None, ,  
10/15/2018 02:43, 21, 81, 16 ,6, 7, NE, None, None, ,  
10/15/2018 02:40, 21, 81, 16 ,5, 7, NE, None, None, ,  
10/15/2018 02:30, 21, 79, 16 ,4, 6, NE, None, None, ,  
10/15/2018 02:28, 21, 79, 16 ,4, 6, NE, None, None, ,  
10/15/2018 02:20, 21, 79, 16 ,4, 8, NE, None, None, ,  
10/15/2018 02:13, 22, 79, 17 ,5, 7, NE, None, None, ,  
10/15/2018 02:10, 22, 80, 17 ,5, 7, NE, None, None, ,  
10/15/2018 02:00, 21, 80, 16 ,4, 8, N, None, None, ,  
10/15/2018 01:57, 22, 80, 17 ,4, 8, NE, None, None, ,  
10/15/2018 01:50, 21, 81, 16 ,6, 8, NE, None, None, ,  
10/15/2018 01:43, 21, 80, 16 ,6, 9, NE, None, None, ,  
10/15/2018 01:40, 21, 80, 16 ,6, 9, NE, None, None, ,  
10/15/2018 01:30, 22, 79, 17 ,4, 7, NE, None, None, ,  
10/15/2018 01:28, 22, 80, 17 ,3, 7, NE, None, None, ,  
10/15/2018 01:20, 21, 79, 16 ,3, 8, NE, None, None, ,  
10/15/2018 01:13, 22, 79, 16 ,6, 8, NE, None, None, ,  
10/15/2018 01:10, 22, 78, 16 ,5, 8, NE, None, None, ,  
10/15/2018 01:00, 22, 76, 16 ,3, 9, N, None, None, ,  
10/15/2018 00:58, 22, 74, 16 ,3, 9, NE, None, None, ,  
10/15/2018 00:50, 28, 67, 19 ,7, 9, SW, None, None, ,  
10/15/2018 00:42, 26, 67, 16 ,2, 9, NW, None, None, ,  
10/15/2018 00:40, 29, 63, 18 ,4, 11, S, None, None, ,  
10/15/2018 00:30, 30, 64, 20 ,8, 11, SW, None, None, ,  
10/15/2018 00:27, 30, 64, 20 ,8, 12, SW, None, None, ,  
10/15/2018 00:19, 31, 67, 21 ,11, 13, SW, None, None, ,  
10/15/2018 00:12, 31, 67, 21 ,11, 14, SW, None, None, ,  
10/15/2018 00:09, 31, 67, 21 ,11, 14, SW, None, None, ,  
10/14/2018 23:59, 31, 67, 21 ,11, 13, SW, None, None, ,  
10/14/2018 23:58, 31, 68, 22 ,11, 13, SW, None, None, ,  
10/14/2018 23:49, 24, 78, 19 ,4, 10, W, None, None, ,  
10/14/2018 23:43, 23, 76, 17 ,2, 6, N, None, None, ,  
10/14/2018 23:39, 24, 75, 18 ,1, 4, S, None, None, ,  
10/14/2018 23:29, 24, 75, 17 ,2, 4, N, None, None, ,  
10/14/2018 23:28, 23, 75, 17 ,1, 4, N, None, None, ,  
10/14/2018 23:19, 24, 75, 17 ,3, 7, NE, None, None, ,  
10/14/2018 23:13, 24, 75, 17 ,4, 7, E, None, None, ,  
10/14/2018 23:09, 23, 76, 17 ,4, 7, NE, None, None, ,  
10/14/2018 22:59, 24, 72, 16 ,2, 6, NE, None, None, ,  
10/14/2018 22:58, 24, 71, 16 ,1, 6, NE, None, None, ,  
10/14/2018 22:49, 31, 64, 20 ,6, 8, SW, None, None, ,  
10/14/2018 22:42, 31, 67, 21 ,6, 9, SW, None, None, ,  
10/14/2018 22:39, 31, 66, 21 ,6, 9, SW, None, None, ,  
10/14/2018 22:29, 31, 67, 22 ,7, 11, SW, None, None, ,  
10/14/2018 22:28, 31, 66, 21 ,6, 11, SW, None, None, ,  
10/14/2018 22:19, 30, 65, 20 ,9, 12, SW, None, None, ,  
10/14/2018 22:13, 30, 67, 21 ,9, 11, SW, None, None, ,  
10/14/2018 22:09, 30, 67, 21 ,9, 12, SW, None, None, ,  
10/14/2018 21:59, 31, 65, 21 ,10, 11, SW, None, None, ,  
10/14/2018 21:58, 31, 65, 21 ,9, 11, SW, None, None, ,  
10/14/2018 21:49, 31, 62, 20 ,7, 12, SW, None, None, ,  
10/14/2018 21:43, 28, 74, 21 ,8, 10, SW, None, None, ,  
10/14/2018 21:39, 24, 77, 18 ,2, 3, NW, None, None, ,  
10/14/2018 21:29, 24, 75, 17 ,2, 3, N, None, None, ,  
10/14/2018 21:28, 24, 75, 17 ,2, 3, N, None, None, ,  
10/14/2018 21:19, 25, 76, 19 ,1, 5, SE, None, None, ,  
10/14/2018 21:13, 24, 77, 18 ,0, 2, N, None, None, ,  
10/14/2018 21:09, 24, 76, 18 ,0, 2, S, None, None, ,  
10/14/2018 20:58, 24, 75, 18 ,1, 6, SE, None, None, ,  
10/14/2018 20:58, 24, 76, 18 ,1, 6, SE, None, None, ,  
10/14/2018 20:48, 23, 76, 17 ,1, 3, NE, None, None, ,  
10/14/2018 20:42, 24, 74, 17 ,1, 2, N, None, None, ,  
10/14/2018 20:38, 24, 74, 17 ,1, 2, N, None, None, ,  
10/14/2018 20:28, 25, 71, 17 ,0, 1, NE, None, None, ,  
10/14/2018 20:28, 25, 71, 17 ,0, 1, NE, None, None, ,  
10/14/2018 20:18, 26, 68, 17 ,1, 2, N, None, None, ,  
10/14/2018 20:12, 27, 65, 17 ,1, 6, N, None, None, ,  
10/14/2018 20:08, 31, 65, 21 ,4, 6, SW, None, None, ,  
10/14/2018 19:58, 30, 66, 20 ,4, 9, SW, None, None, ,  
10/14/2018 19:57, 30, 66, 20 ,4, 9, S, None, None, ,  
10/14/2018 19:48, 31, 65, 21 ,7, 10, SW, None, None, ,  
Change End Date:

Copyright © 1998-2015 Vaisala, Inc.
All Rights Reserved
Send comments about the data to:
SCAN Web ® is a registered trademark of Vaisala, Inc.
SCAN Web Version 6.0